Time;durP1;ratioP1;P1;durP2;ratioP2;P2;SDS_P1;SDS_P2;PMS_P1;PMS_P2;Temp;Humidity;BMP_temperature;BMP_pressure;BME280_temperature;BME280_humidity;BME280_pressure;Samples;Min_cycle;Max_cycle;Signal;HPM_P1;HPM_P2
2021/12/25 00:01:28;;;;;;;3.38;1.38;;;-1.10;99.90;;;;;;5033565;28;20288;-80
2021/12/25 00:03:56;;;;;;;2.45;1.05;;;-1.10;99.90;;;;;;5033498;28;20217;-80
2021/12/25 00:06:25;;;;;;;2.97;1.30;;;-1.10;99.90;;;;;;5017037;28;20753;-81
2021/12/25 00:08:53;;;;;;;3.25;1.45;;;-1.20;99.90;;;;;;5026388;28;20193;-81
2021/12/25 00:11:20;;;;;;;5.28;0.80;;;-1.20;99.90;;;;;;5027053;28;20201;-81
2021/12/25 00:13:47;;;;;;;1.00;0.80;;;-1.20;99.90;;;;;;5027797;28;20216;-80
2021/12/25 00:16:13;;;;;;;2.85;1.15;;;-1.20;99.90;;;;;;5026964;28;20201;-83
2021/12/25 00:18:40;;;;;;;2.38;1.02;;;-1.20;99.90;;;;;;5030136;28;20212;-80
2021/12/25 00:21:08;;;;;;;1.95;1.00;;;-1.30;99.90;;;;;;5033602;28;20229;-80
2021/12/25 00:23:37;;;;;;;2.55;0.98;;;-1.20;99.90;;;;;;5038008;28;20664;-80
2021/12/25 00:26:10;;;;;;;1.33;1.10;;;-1.30;99.90;;;;;;5033900;28;20225;-80
2021/12/25 00:28:53;;;;;;;3.08;1.90;;;-1.40;99.90;;;;;;5030263;28;20201;-81
2021/12/25 00:31:41;;;;;;;4.05;2.42;;;-1.40;99.90;;;;;;5032073;28;20203;-82
2021/12/25 00:34:09;;;;;;;1.15;1.05;;;-1.40;99.90;;;;;;5031694;28;20225;-81
2021/12/25 00:36:36;;;;;;;1.63;1.20;;;-1.40;99.90;;;;;;5034505;28;20209;-81
2021/12/25 00:39:04;;;;;;;1.30;0.90;;;-1.40;99.90;;;;;;5033018;28;20268;-82
2021/12/25 00:41:32;;;;;;;4.35;1.35;;;-1.30;99.90;;;;;;5025534;28;20245;-81
2021/12/25 00:43:59;;;;;;;2.45;1.42;;;-1.30;99.90;;;;;;5024617;28;20275;-81
2021/12/25 00:46:26;;;;;;;1.92;0.82;;;-1.40;99.90;;;;;;5025137;28;20244;-80
2021/12/25 00:48:53;;;;;;;4.50;1.00;;;-1.50;99.90;;;;;;5028451;28;20237;-81
2021/12/25 00:51:20;;;;;;;2.42;1.00;;;-1.40;99.90;;;;;;5024874;28;20336;-81
2021/12/25 00:53:47;;;;;;;2.63;0.90;;;-1.50;99.90;;;;;;5022696;28;20224;-80
2021/12/25 00:56:13;;;;;;;4.45;1.42;;;-1.50;99.90;;;;;;5021654;28;20201;-80
2021/12/25 00:58:42;;;;;;;3.65;1.17;;;-1.50;99.90;;;;;;5021103;28;20220;-81
2021/12/25 01:01:09;;;;;;;4.60;1.50;;;-1.50;99.90;;;;;;5021387;28;20697;-81
2021/12/25 01:03:36;;;;;;;1.27;0.90;;;-1.50;99.90;;;;;;5026661;28;20593;-80
2021/12/25 01:06:03;;;;;;;2.67;1.27;;;-1.50;99.90;;;;;;5024025;28;20292;-81
2021/12/25 01:08:30;;;;;;;1.35;0.90;;;-1.60;99.90;;;;;;5031831;28;20240;-81
2021/12/25 01:10:57;;;;;;;1.90;0.88;;;-1.60;99.90;;;;;;5022990;28;20205;-81
2021/12/25 01:13:27;;;;;;;7.65;1.42;;;-1.60;99.90;;;;;;5023233;28;20227;-81
2021/12/25 01:16:10;;;;;;;1.92;1.63;;;-1.60;99.90;;;;;;5024849;28;20231;-81
2021/12/25 01:24:24;;;;;;;1.42;0.80;;;-1.60;99.90;;;;;;5028547;28;20243;-81
2021/12/25 01:29:45;;;;;;;1.77;0.98;;;-1.80;99.90;;;;;;5016014;28;20196;-82
2021/12/25 01:32:45;;;;;;;2.88;0.90;;;-1.70;99.90;;;;;;5027048;28;20353;-81
2021/12/25 01:38:02;;;;;;;3.60;1.02;;;-1.80;99.90;;;;;;5022633;28;20201;-81
2021/12/25 01:40:49;;;;;;;4.22;1.08;;;-1.70;99.90;;;;;;5027363;28;20212;-80
2021/12/25 01:48:46;;;;;;;3.58;1.10;;;-1.90;99.90;;;;;;5022325;28;20696;-81
2021/12/25 01:51:14;;;;;;;1.80;0.90;;;-1.90;99.90;;;;;;5025646;28;20228;-79
2021/12/25 01:53:41;;;;;;;1.55;1.10;;;-2.00;99.90;;;;;;5022869;28;20670;-80
2021/12/25 01:56:08;;;;;;;2.28;1.00;;;-2.00;99.90;;;;;;5023621;28;20228;-82
2021/12/25 01:58:36;;;;;;;5.65;1.15;;;-2.00;99.90;;;;;;5023558;28;20296;-81
2021/12/25 02:01:06;;;;;;;1.88;1.00;;;-2.00;99.90;;;;;;5023370;28;20221;-80
2021/12/25 02:03:35;;;;;;;0.93;0.70;;;-2.00;99.90;;;;;;5023987;28;20204;-80
2021/12/25 02:06:05;;;;;;;2.75;1.15;;;-2.00;99.90;;;;;;5023012;28;20275;-81
2021/12/25 02:08:33;;;;;;;2.78;1.00;;;-2.10;99.90;;;;;;5023248;28;20224;-81
2021/12/25 02:11:00;;;;;;;1.35;0.90;;;-2.00;99.90;;;;;;5024366;28;20193;-80
2021/12/25 02:13:27;;;;;;;2.42;0.80;;;-2.10;99.90;;;;;;5023378;28;20608;-80
2021/12/25 02:15:56;;;;;;;2.08;1.40;;;-2.10;99.90;;;;;;5025393;28;20220;-80
2021/12/25 02:18:28;;;;;;;4.78;1.27;;;-2.20;99.90;;;;;;5022899;28;20212;-80
2021/12/25 02:21:02;;;;;;;2.28;1.15;;;-2.30;99.90;;;;;;5023440;28;20228;-80
2021/12/25 02:23:32;;;;;;;1.40;0.90;;;-2.20;99.90;;;;;;5024564;28;20287;-82
2021/12/25 02:26:00;;;;;;;5.60;0.90;;;-2.20;99.90;;;;;;5023960;28;20236;-81
2021/12/25 02:28:27;;;;;;;2.13;0.93;;;-2.20;99.90;;;;;;5023884;28;20201;-80
2021/12/25 02:30:58;;;;;;;5.00;2.03;;;-2.30;99.90;;;;;;5023364;28;20205;-80
2021/12/25 02:33:26;;;;;;;1.50;1.05;;;-2.40;99.90;;;;;;5025010;28;20288;-82
2021/12/25 02:35:54;;;;;;;1.88;1.20;;;-2.40;99.90;;;;;;5024470;28;20204;-80
2021/12/25 02:38:23;;;;;;;2.53;1.42;;;-2.40;99.90;;;;;;5025056;28;20237;-79
2021/12/25 02:40:50;;;;;;;2.90;1.35;;;-2.50;99.90;;;;;;5025968;28;20209;-78
2021/12/25 02:43:17;;;;;;;1.48;0.80;;;-2.50;99.90;;;;;;5024851;28;20200;-80
2021/12/25 02:45:45;;;;;;;0.80;0.60;;;-2.30;99.90;;;;;;5024075;28;20233;-81
2021/12/25 02:48:15;;;;;;;1.98;1.02;;;-2.40;99.90;;;;;;5023601;28;20232;-79
2021/12/25 02:50:43;;;;;;;1.08;0.80;;;-2.50;99.90;;;;;;5022290;28;20197;-80
2021/12/25 02:53:11;;;;;;;1.13;0.70;;;-2.40;99.90;;;;;;5030511;28;20232;-81
2021/12/25 02:55:41;;;;;;;3.42;1.45;;;-2.40;99.90;;;;;;5023392;28;20229;-81
2021/12/25 02:58:08;;;;;;;4.28;1.00;;;-2.40;99.90;;;;;;5024111;28;20205;-81
2021/12/25 03:00:38;;;;;;;2.28;0.85;;;-2.50;99.90;;;;;;5021818;28;20215;-81
2021/12/25 03:03:06;;;;;;;4.65;1.50;;;-2.50;99.90;;;;;;5028227;28;20227;-80
2021/12/25 03:05:33;;;;;;;2.50;1.17;;;-2.50;99.90;;;;;;5026488;28;20225;-81
2021/12/25 03:07:59;;;;;;;2.58;0.85;;;-2.50;99.90;;;;;;5023262;28;20264;-81
2021/12/25 03:10:27;;;;;;;1.13;0.80;;;-2.50;99.90;;;;;;5030527;28;20298;-81
2021/12/25 03:13:16;;;;;;;2.33;1.13;;;-2.50;99.90;;;;;;5029097;28;20200;-79
2021/12/25 03:15:46;;;;;;;2.55;0.68;;;-2.60;99.90;;;;;;5029034;28;20207;-80
2021/12/25 03:18:13;;;;;;;5.28;1.02;;;-2.50;99.90;;;;;;5036708;28;20309;-79
2021/12/25 03:20:44;;;;;;;1.75;0.90;;;-2.50;99.90;;;;;;5044653;28;20223;-79
2021/12/25 03:23:12;;;;;;;3.35;0.82;;;-2.40;99.90;;;;;;5036921;28;20209;-79
2021/12/25 03:25:39;;;;;;;1.70;1.30;;;-2.40;99.90;;;;;;5037005;28;20213;-79
2021/12/25 03:28:07;;;;;;;2.55;1.35;;;-2.50;99.90;;;;;;5037427;28;20212;-79
2021/12/25 03:30:38;;;;;;;3.25;0.82;;;-2.40;99.90;;;;;;5036678;28;20200;-77
2021/12/25 03:33:05;;;;;;;0.70;0.60;;;-2.50;99.90;;;;;;5036947;28;20184;-78
2021/12/25 03:35:33;;;;;;;1.02;0.82;;;-2.50;99.90;;;;;;5044957;28;20228;-77
2021/12/25 03:38:00;;;;;;;2.10;1.10;;;-2.50;99.90;;;;;;5039289;28;20195;-79
2021/12/25 03:40:27;;;;;;;1.98;1.00;;;-2.50;99.90;;;;;;5044877;28;20228;-78
2021/12/25 03:42:54;;;;;;;2.17;1.00;;;-2.50;99.90;;;;;;5044751;28;20220;-79
2021/12/25 03:45:23;;;;;;;3.45;0.80;;;-2.50;99.90;;;;;;5050904;28;20223;-79
2021/12/25 03:47:52;;;;;;;3.17;0.88;;;-2.60;99.90;;;;;;5036912;28;20184;-79
2021/12/25 03:53:25;;;;;;;1.20;1.05;;;-2.60;99.90;;;;;;5036591;28;20265;-79
2021/12/25 03:58:37;;;;;;;1.33;0.90;;;-2.70;99.90;;;;;;5044960;28;20203;-78
2021/12/25 04:01:24;;;;;;;2.00;1.65;;;-2.70;99.90;;;;;;5034045;28;20228;-81
2021/12/25 04:04:05;;;;;;;1.17;0.90;;;-2.70;99.90;;;;;;5022175;28;20236;-81
2021/12/25 04:06:33;;;;;;;1.42;1.00;;;-2.70;99.90;;;;;;5020929;28;20205;-80
2021/12/25 04:09:03;;;;;;;1.67;1.10;;;-2.60;99.90;;;;;;5028881;28;20591;-80
2021/12/25 04:11:34;;;;;;;3.72;0.85;;;-2.60;99.90;;;;;;5019681;28;20201;-80
2021/12/25 04:14:00;;;;;;;1.92;0.80;;;-2.60;99.90;;;;;;5018180;28;20235;-81
2021/12/25 04:16:29;;;;;;;1.83;1.00;;;-2.60;99.90;;;;;;5024548;28;20300;-80
2021/12/25 04:18:56;;;;;;;1.77;0.80;;;-2.70;99.90;;;;;;5025619;28;20235;-80
2021/12/25 04:21:24;;;;;;;4.50;1.00;;;-2.70;99.90;;;;;;5024861;28;20213;-81
2021/12/25 04:23:51;;;;;;;1.52;0.93;;;-2.70;99.90;;;;;;5025323;28;20279;-81
2021/12/25 04:26:20;;;;;;;1.95;1.00;;;-2.70;99.90;;;;;;5024514;28;20229;-80
2021/12/25 04:28:59;;;;;;;1.70;1.17;;;-2.80;99.90;;;;;;5024800;28;20200;-81
2021/12/25 04:31:34;;;;;;;1.77;1.00;;;-2.60;99.90;;;;;;5027081;28;20655;-80
2021/12/25 04:48:03;;;;;;;1.25;0.70;;;-2.80;99.90;;;;;;5021961;28;20246;-81
2021/12/25 05:04:14;;;;;;;5.75;1.45;;;-2.80;99.90;;;;;;5023045;28;20223;-82
2021/12/25 05:06:43;;;;;;;1.52;1.15;;;-2.90;99.90;;;;;;5022865;28;20236;-81
2021/12/25 05:09:10;;;;;;;6.13;1.30;;;-2.90;99.90;;;;;;5022522;28;20265;-81
2021/12/25 05:11:37;;;;;;;1.23;1.13;;;-3.00;99.90;;;;;;5020535;28;20586;-81
2021/12/25 05:14:04;;;;;;;3.30;1.02;;;-2.90;99.90;;;;;;5021864;28;20288;-81
2021/12/25 05:16:30;;;;;;;1.38;1.10;;;-2.90;99.90;;;;;;5021974;28;20207;-80
2021/12/25 05:18:57;;;;;;;2.97;0.90;;;-2.90;99.90;;;;;;5020929;28;20207;-80
2021/12/25 05:21:24;;;;;;;5.80;1.08;;;-2.90;99.90;;;;;;5021784;28;20272;-81
2021/12/25 05:23:53;;;;;;;3.03;1.15;;;-2.90;99.90;;;;;;5025185;28;20239;-80
2021/12/25 05:26:20;;;;;;;1.40;1.00;;;-2.90;99.90;;;;;;5025738;28;20622;-82
2021/12/25 05:28:57;;;;;;;2.55;1.10;;;-2.90;99.90;;;;;;5023709;28;20204;-81
2021/12/25 05:31:23;;;;;;;1.45;1.10;;;-2.90;99.90;;;;;;5023122;28;20196;-81
2021/12/25 05:33:50;;;;;;;4.80;1.33;;;-3.00;99.90;;;;;;5023868;28;20263;-81
2021/12/25 05:36:17;;;;;;;1.85;0.90;;;-3.00;99.90;;;;;;5024348;28;20239;-80
2021/12/25 05:38:44;;;;;;;2.90;1.00;;;-3.00;99.90;;;;;;5024465;28;20201;-82
2021/12/25 05:41:13;;;;;;;1.35;0.95;;;-3.00;99.90;;;;;;5023426;28;20232;-80
2021/12/25 05:43:40;;;;;;;2.25;1.30;;;-3.00;99.90;;;;;;5023232;28;20672;-80
2021/12/25 05:46:07;;;;;;;1.08;0.75;;;-2.90;99.90;;;;;;5024017;28;20236;-80
2021/12/25 05:48:35;;;;;;;1.30;0.80;;;-3.10;99.90;;;;;;5022418;28;20251;-80
2021/12/25 05:51:02;;;;;;;2.85;1.05;;;-3.10;99.90;;;;;;5029292;28;20292;-80
2021/12/25 05:53:29;;;;;;;3.67;1.00;;;-3.10;99.90;;;;;;5021773;28;20197;-81
2021/12/25 05:55:56;;;;;;;1.35;1.23;;;-3.20;99.90;;;;;;5023891;28;20207;-80
2021/12/25 05:58:24;;;;;;;2.25;0.75;;;-3.20;99.90;;;;;;5024203;28;20215;-80
2021/12/25 06:00:51;;;;;;;1.83;1.08;;;-3.20;99.90;;;;;;5025081;28;20205;-81
2021/12/25 06:03:18;;;;;;;1.35;0.90;;;-3.30;99.90;;;;;;5029068;28;20233;-80
2021/12/25 06:05:47;;;;;;;1.83;0.77;;;-3.20;99.90;;;;;;5028991;28;20257;-81
2021/12/25 06:08:14;;;;;;;5.57;0.90;;;-3.20;99.90;;;;;;5031186;28;20240;-80
2021/12/25 06:10:42;;;;;;;2.08;1.20;;;-3.20;99.90;;;;;;5034351;28;20196;-80
2021/12/25 06:13:11;;;;;;;3.45;1.17;;;-3.20;99.90;;;;;;5035176;28;20670;-81
2021/12/25 06:15:39;;;;;;;1.50;1.00;;;-3.20;99.90;;;;;;5026581;28;20248;-81
2021/12/25 06:18:08;;;;;;;7.65;1.17;;;-3.10;99.90;;;;;;5026206;28;20272;-80
2021/12/25 06:20:35;;;;;;;3.00;1.00;;;-3.10;99.90;;;;;;5026810;28;20275;-81
2021/12/25 06:23:03;;;;;;;1.35;1.05;;;-3.10;99.90;;;;;;5025335;28;20204;-80
2021/12/25 06:25:30;;;;;;;1.10;0.80;;;-3.20;99.90;;;;;;5025575;28;20217;-80
2021/12/25 06:27:57;;;;;;;2.25;1.00;;;-3.20;99.90;;;;;;5036587;28;20200;-79
2021/12/25 06:30:24;;;;;;;2.10;0.88;;;-3.20;99.90;;;;;;5032023;28;20210;-79
2021/12/25 06:32:52;;;;;;;2.65;1.10;;;-3.20;99.90;;;;;;5032372;28;20201;-79
2021/12/25 06:35:19;;;;;;;1.48;0.90;;;-3.20;99.90;;;;;;5031199;28;20220;-78
2021/12/25 06:37:46;;;;;;;1.95;0.93;;;-3.20;99.90;;;;;;5032401;28;20199;-78
2021/12/25 06:40:17;;;;;;;0.90;0.70;;;-3.20;99.90;;;;;;5031093;28;20196;-79
2021/12/25 06:42:45;;;;;;;4.60;1.25;;;-3.30;99.90;;;;;;5024730;28;20284;-79
2021/12/25 06:45:11;;;;;;;2.20;1.20;;;-3.20;99.90;;;;;;5033641;28;20297;-79
2021/12/25 06:47:39;;;;;;;1.77;1.00;;;-3.30;99.90;;;;;;5034224;28;20188;-79
2021/12/25 06:50:09;;;;;;;3.72;0.82;;;-3.30;99.90;;;;;;5034451;28;20221;-78
2021/12/25 06:52:36;;;;;;;1.20;1.10;;;-3.30;99.90;;;;;;5035930;28;20264;-79
2021/12/25 06:55:05;;;;;;;1.48;0.90;;;-3.20;99.90;;;;;;5034713;28;20320;-80
2021/12/25 06:57:32;;;;;;;1.50;0.90;;;-3.30;99.90;;;;;;5034402;28;20209;-81
2021/12/25 06:59:59;;;;;;;1.95;1.00;;;-3.30;99.90;;;;;;5033876;28;20197;-81
2021/12/25 07:02:25;;;;;;;2.83;1.38;;;-3.40;99.90;;;;;;5033204;28;20260;-80
2021/12/25 07:04:52;;;;;;;7.03;1.33;;;-3.30;99.90;;;;;;5032923;28;20244;-80
2021/12/25 07:07:23;;;;;;;1.38;1.17;;;-3.30;99.90;;;;;;5031719;28;20292;-80
2021/12/25 07:09:50;;;;;;;4.85;1.23;;;-3.40;99.90;;;;;;5021865;28;20211;-80
2021/12/25 07:12:19;;;;;;;1.90;1.42;;;-3.30;99.90;;;;;;5025550;28;20292;-79
2021/12/25 07:14:46;;;;;;;0.90;0.80;;;-3.40;99.90;;;;;;5036861;28;20196;-80
2021/12/25 07:17:12;;;;;;;2.05;1.05;;;-3.40;99.90;;;;;;5025704;28;20207;-81
2021/12/25 07:19:39;;;;;;;1.58;1.08;;;-3.50;99.90;;;;;;5025387;28;20589;-81
2021/12/25 07:22:06;;;;;;;1.30;1.02;;;-3.50;99.90;;;;;;5026786;28;20208;-81
2021/12/25 07:24:35;;;;;;;3.13;1.60;;;-3.50;99.90;;;;;;5027581;28;20248;-82
2021/12/25 07:27:05;;;;;;;1.58;0.90;;;-3.60;99.90;;;;;;5040268;28;20211;-83
2021/12/25 07:29:32;;;;;;;3.30;1.20;;;-3.50;99.90;;;;;;5022430;28;20239;-83
2021/12/25 07:31:59;;;;;;;3.50;1.10;;;-3.50;99.90;;;;;;5021715;28;20287;-82
2021/12/25 07:34:26;;;;;;;3.92;1.80;;;-3.50;99.90;;;;;;5026624;28;20521;-82
2021/12/25 07:36:53;;;;;;;2.95;1.05;;;-3.50;99.90;;;;;;5023757;28;20217;-83
2021/12/25 07:39:20;;;;;;;2.70;1.75;;;-3.30;99.90;;;;;;5021535;28;20201;-81
2021/12/25 07:41:48;;;;;;;5.47;1.73;;;-3.10;99.90;;;;;;5021313;28;20718;-80
2021/12/25 07:44:16;;;;;;;3.50;2.20;;;-2.80;99.90;;;;;;5020946;28;20745;-80
2021/12/25 07:46:45;;;;;;;6.28;2.92;;;-2.50;99.90;;;;;;5021217;28;20201;-80
2021/12/25 07:49:18;;;;;;;7.70;3.88;;;-2.30;99.90;;;;;;5026198;28;20219;-80
2021/12/25 07:51:45;;;;;;;2.10;1.38;;;-2.40;99.90;;;;;;5021436;28;20220;-80
2021/12/25 07:54:12;;;;;;;3.30;1.48;;;-2.40;99.90;;;;;;5037363;28;20311;-81
2021/12/25 07:56:39;;;;;;;3.63;1.98;;;-2.50;99.90;;;;;;5033969;28;20588;-79
2021/12/25 07:59:09;;;;;;;4.03;1.80;;;-2.70;99.90;;;;;;5037759;28;20211;-82
2021/12/25 08:01:36;;;;;;;4.75;1.60;;;-2.80;99.90;;;;;;5028467;28;20211;-81
2021/12/25 08:04:03;;;;;;;5.90;1.60;;;-2.90;99.90;;;;;;5033889;28;20300;-81
2021/12/25 08:06:30;;;;;;;4.25;1.50;;;-2.90;99.90;;;;;;5026273;28;20201;-81
2021/12/25 08:09:00;;;;;;;4.55;1.58;;;-3.00;99.90;;;;;;5031546;28;20209;-81
2021/12/25 08:11:27;;;;;;;2.85;1.75;;;-3.00;99.90;;;;;;5024762;28;20209;-80
2021/12/25 08:13:54;;;;;;;2.57;1.57;;;-3.10;99.90;;;;;;5028404;28;20973;-82
2021/12/25 08:16:23;;;;;;;1.92;1.25;;;-3.20;99.90;;;;;;5025808;28;20937;-81
2021/12/25 08:18:50;;;;;;;3.08;1.70;;;-3.10;99.90;;;;;;5023888;28;20208;-80
2021/12/25 08:21:17;;;;;;;1.80;1.50;;;-3.00;99.90;;;;;;5023148;28;20220;-79
2021/12/25 08:23:44;;;;;;;1.40;1.20;;;-2.90;99.90;;;;;;5032695;28;20228;-81
2021/12/25 08:26:11;;;;;;;3.00;1.38;;;-2.80;99.90;;;;;;5029308;28;20231;-80
2021/12/25 08:28:38;;;;;;;2.03;1.40;;;-2.60;99.90;;;;;;5023518;28;20229;-81
2021/12/25 08:31:05;;;;;;;3.47;1.73;;;-2.50;99.90;;;;;;5022648;28;20887;-83
2021/12/25 08:33:33;;;;;;;1.60;1.30;;;-2.30;99.90;;;;;;5023802;28;20253;-80
2021/12/25 08:36:00;;;;;;;5.63;1.33;;;-2.10;99.90;;;;;;5024753;28;20241;-81
2021/12/25 08:38:27;;;;;;;1.75;1.10;;;-2.20;99.90;;;;;;5027135;28;20200;-80
2021/12/25 08:40:55;;;;;;;1.42;1.27;;;-2.30;99.90;;;;;;5031991;28;20243;-83
2021/12/25 08:43:24;;;;;;;5.05;1.40;;;-2.40;99.90;;;;;;5024673;28;20217;-82
2021/12/25 08:46:01;;;;;;;3.17;1.13;;;-2.40;99.90;;;;;;5017893;28;20265;-82
2021/12/25 08:48:29;;;;;;;3.47;1.40;;;-2.40;99.90;;;;;;5029704;28;20292;-80
2021/12/25 08:51:00;;;;;;;2.55;1.55;;;-2.30;99.90;;;;;;5023076;28;20236;-83
2021/12/25 08:53:28;;;;;;;2.25;1.38;;;-1.90;99.90;;;;;;5027182;28;20197;-84
2021/12/25 08:55:57;;;;;;;1.40;1.17;;;-0.70;99.90;;;;;;5025254;28;20212;-81
2021/12/25 08:58:25;;;;;;;3.20;1.02;;;0.50;99.90;;;;;;5025414;28;20209;-84
2021/12/25 09:00:56;;;;;;;1.83;1.15;;;1.70;99.90;;;;;;5024117;28;20310;-83
2021/12/25 09:03:25;;;;;;;5.97;1.60;;;2.70;99.70;;;;;;5023975;28;20220;-84
2021/12/25 09:05:54;;;;;;;1.65;1.25;;;3.80;96.70;;;;;;5023384;28;20252;-82
2021/12/25 09:08:23;;;;;;;2.40;1.92;;;4.60;92.20;;;;;;5024531;28;20604;-84
2021/12/25 09:10:51;;;;;;;2.08;1.27;;;4.90;90.30;;;;;;5020394;28;20622;-83
2021/12/25 09:13:18;;;;;;;2.58;1.08;;;5.80;85.00;;;;;;5026796;28;20298;-81
2021/12/25 09:15:45;;;;;;;2.63;1.10;;;5.70;83.20;;;;;;5024706;28;20224;-83
2021/12/25 09:18:12;;;;;;;1.80;1.05;;;6.10;81.40;;;;;;5025279;28;20227;-83
2021/12/25 09:20:39;;;;;;;4.15;1.25;;;6.30;79.70;;;;;;5020469;28;20262;-83
2021/12/25 09:23:06;;;;;;;3.78;1.35;;;6.60;78.20;;;;;;5017444;28;20281;-82
2021/12/25 09:25:35;;;;;;;2.25;1.40;;;7.00;77.90;;;;;;5025584;28;20235;-84
2021/12/25 09:28:03;;;;;;;2.67;1.38;;;7.30;76.80;;;;;;5014526;28;20284;-83
2021/12/25 09:30:30;;;;;;;2.72;1.27;;;7.50;75.30;;;;;;5015752;28;20212;-83
2021/12/25 09:32:57;;;;;;;4.93;1.88;;;7.40;73.90;;;;;;5023519;28;20323;-85
2021/12/25 09:35:25;;;;;;;3.85;1.55;;;7.50;74.60;;;;;;5023794;28;20240;-85
2021/12/25 09:37:52;;;;;;;3.55;1.40;;;7.60;73.00;;;;;;5021297;28;20192;-84
2021/12/25 09:40:19;;;;;;;2.38;1.48;;;7.70;71.80;;;;;;5023345;28;20213;-84
2021/12/25 09:42:47;;;;;;;1.80;1.30;;;7.70;71.00;;;;;;5018909;28;20205;-86
2021/12/25 09:45:15;;;;;;;2.65;1.77;;;8.00;71.20;;;;;;5032137;28;20279;-83
2021/12/25 09:47:42;;;;;;;1.90;1.02;;;7.80;70.50;;;;;;5019059;28;20682;-86
2021/12/25 09:50:10;;;;;;;2.92;1.50;;;8.10;71.20;;;;;;5029964;28;20659;-82
2021/12/25 09:52:39;;;;;;;3.88;1.80;;;8.00;69.40;;;;;;5023479;28;20651;-82
2021/12/25 09:55:08;;;;;;;3.67;1.67;;;8.20;68.20;;;;;;5030865;28;20250;-83
2021/12/25 09:57:34;;;;;;;2.15;1.40;;;8.30;70.10;;;;;;5022779;28;20562;-82
2021/12/25 10:00:11;;;;;;;2.15;1.45;;;8.90;67.60;;;;;;5020946;28;20228;-83
2021/12/25 10:02:44;;;;;;;2.40;1.75;;;9.00;67.00;;;;;;5031699;28;20289;-80
2021/12/25 10:05:11;;;;;;;2.03;1.35;;;9.10;66.40;;;;;;5025712;28;20256;-80
2021/12/25 10:07:40;;;;;;;4.57;1.33;;;9.40;66.00;;;;;;5029558;28;20266;-85
2021/12/25 10:10:10;;;;;;;5.70;1.80;;;9.50;64.50;;;;;;5022661;28;20192;-81
2021/12/25 10:12:41;;;;;;;3.55;1.75;;;9.20;63.10;;;;;;5019010;28;20265;-82
2021/12/25 10:15:12;;;;;;;2.97;1.85;;;9.70;63.30;;;;;;5005551;28;20747;-83
2021/12/25 10:17:46;;;;;;;2.60;1.65;;;9.30;62.40;;;;;;5012012;28;20691;-83
2021/12/25 10:20:16;;;;;;;2.33;1.33;;;8.90;63.30;;;;;;5006485;28;20261;-83
2021/12/25 10:23:00;;;;;;;4.40;2.10;;;8.70;64.30;;;;;;5004861;28;20233;-83
2021/12/25 10:25:32;;;;;;;2.50;1.40;;;8.90;64.50;;;;;;5014376;28;20243;-81
2021/12/25 10:28:01;;;;;;;1.92;1.50;;;8.60;66.20;;;;;;5012489;28;20212;-83
2021/12/25 10:30:30;;;;;;;4.10;1.42;;;8.20;66.70;;;;;;5010742;28;20270;-81
2021/12/25 10:32:58;;;;;;;3.20;1.25;;;8.30;66.10;;;;;;5008225;28;20238;-85
2021/12/25 10:35:27;;;;;;;2.63;1.30;;;8.10;65.50;;;;;;5006176;28;20272;-83
2021/12/25 10:37:55;;;;;;;2.05;1.40;;;7.20;66.00;;;;;;5011772;28;20657;-83
2021/12/25 10:40:26;;;;;;;2.10;1.33;;;6.10;67.70;;;;;;5022277;28;20208;-82
2021/12/25 10:42:55;;;;;;;3.28;1.88;;;5.60;70.80;;;;;;5023907;28;20193;-85
2021/12/25 10:45:26;;;;;;;6.22;2.13;;;4.70;72.50;;;;;;5023058;28;20231;-85
2021/12/25 10:48:09;;;;;;;1.95;1.30;;;4.10;75.10;;;;;;5019945;28;20237;-82
2021/12/25 10:50:40;;;;;;;2.33;1.55;;;3.50;78.40;;;;;;5018614;28;20228;-83
2021/12/25 10:53:24;;;;;;;4.82;1.55;;;3.00;80.50;;;;;;5022326;28;20201;-82
2021/12/25 10:55:51;;;;;;;2.97;1.75;;;2.60;82.60;;;;;;5009768;28;20216;-85
2021/12/25 10:58:20;;;;;;;3.75;1.35;;;2.20;85.10;;;;;;5014975;28;20216;-84
2021/12/25 11:00:53;;;;;;;2.00;1.33;;;1.90;88.30;;;;;;5015753;28;20223;-82
2021/12/25 11:03:29;;;;;;;3.17;1.42;;;1.60;88.60;;;;;;5014072;28;20220;-81
2021/12/25 11:06:02;;;;;;;5.95;1.60;;;1.30;90.60;;;;;;5022677;28;20202;-83
2021/12/25 11:08:30;;;;;;;3.95;1.60;;;1.30;91.00;;;;;;5023345;28;20205;-84
2021/12/25 11:11:00;;;;;;;3.00;1.67;;;1.30;91.30;;;;;;5018306;28;20204;-83
2021/12/25 11:13:30;;;;;;;1.33;1.13;;;1.00;92.00;;;;;;5011384;28;20212;-82
2021/12/25 11:16:04;;;;;;;3.85;1.33;;;0.90;92.90;;;;;;5019640;28;20203;-82
2021/12/25 11:18:49;;;;;;;4.07;1.45;;;0.80;93.00;;;;;;5020815;28;20251;-84
2021/12/25 11:21:16;;;;;;;2.03;1.10;;;0.80;93.70;;;;;;4988272;28;1090452;-84
2021/12/25 11:23:45;;;;;;;3.00;1.70;;;0.70;94.00;;;;;;5021004;28;20217;-83
2021/12/25 11:26:13;;;;;;;1.85;1.20;;;0.60;94.30;;;;;;5022214;28;20255;-82
2021/12/25 11:28:42;;;;;;;2.05;1.40;;;0.40;94.60;;;;;;5022459;28;20207;-83
2021/12/25 11:31:09;;;;;;;6.13;2.20;;;0.40;95.50;;;;;;5013423;28;20206;-83
2021/12/25 11:33:39;;;;;;;4.63;1.45;;;0.30;96.10;;;;;;5021593;28;20912;-83
2021/12/25 11:36:06;;;;;;;2.00;1.42;;;0.30;96.10;;;;;;5023377;28;20232;-82
2021/12/25 11:38:33;;;;;;;5.15;1.60;;;0.30;96.50;;;;;;5035831;28;20200;-82
2021/12/25 11:41:07;;;;;;;4.35;1.30;;;0.20;97.00;;;;;;5035827;28;20224;-82
2021/12/25 11:43:41;;;;;;;4.68;1.30;;;0.20;97.40;;;;;;5034563;28;20196;-83
2021/12/25 11:46:09;;;;;;;3.40;1.08;;;0.20;97.70;;;;;;5022825;28;20232;-82
2021/12/25 11:48:38;;;;;;;3.97;1.35;;;0.10;97.80;;;;;;5024860;28;21247;-83
2021/12/25 11:51:06;;;;;;;2.40;1.10;;;0.10;98.00;;;;;;5026961;28;20237;-82
2021/12/25 11:53:52;;;;;;;4.00;0.98;;;0.10;98.70;;;;;;5019613;28;20212;-82
2021/12/25 11:59:11;;;;;;;4.40;1.63;;;0.20;98.30;;;;;;5018917;28;20208;-83
2021/12/25 12:01:41;;;;;;;7.97;1.67;;;0.20;98.50;;;;;;5021383;28;20195;-83
2021/12/25 12:04:16;;;;;;;3.47;1.30;;;0.10;98.70;;;;;;5022703;28;20761;-82
2021/12/25 12:07:06;;;;;;;4.32;1.92;;;0.10;98.30;;;;;;5020170;28;20195;-82
2021/12/25 12:09:34;;;;;;;1.50;1.00;;;0.10;98.60;;;;;;5025073;28;20193;-83
2021/12/25 12:12:13;;;;;;;5.35;3.20;;;0.10;98.90;;;;;;5037320;28;20682;-82
2021/12/25 12:14:41;;;;;;;2.58;1.20;;;0.10;99.10;;;;;;5026171;28;20225;-83
2021/12/25 12:17:09;;;;;;;3.20;1.50;;;0.00;98.70;;;;;;5029519;28;20472;-82
2021/12/25 12:19:46;;;;;;;2.28;1.13;;;0.10;98.70;;;;;;5022468;28;20205;-82
2021/12/25 12:22:42;;;;;;;3.50;1.77;;;0.10;98.40;;;;;;5041721;28;20239;-84
2021/12/25 12:25:21;;;;;;;4.82;1.40;;;0.00;98.50;;;;;;5026788;28;20219;-84
2021/12/25 12:27:51;;;;;;;3.97;1.60;;;0.00;98.70;;;;;;5031046;28;20213;-83
2021/12/25 12:30:46;;;;;;;3.22;1.35;;;0.00;98.60;;;;;;5030605;28;20249;-83
2021/12/25 12:33:35;;;;;;;4.13;1.70;;;0.00;98.40;;;;;;4987448;28;20228;-84
2021/12/25 12:36:05;;;;;;;11.75;2.35;;;0.00;98.80;;;;;;5027588;28;20249;-84
2021/12/25 12:38:39;;;;;;;1.33;0.95;;;0.00;98.60;;;;;;5027962;28;20205;-82
2021/12/25 12:41:27;;;;;;;4.82;1.20;;;0.20;98.90;;;;;;5027209;28;20231;-84
2021/12/25 12:44:04;;;;;;;3.95;1.60;;;0.10;98.80;;;;;;5026587;28;20231;-84
2021/12/25 12:47:07;;;;;;;2.35;1.08;;;0.10;98.70;;;;;;5025378;28;20530;-83
2021/12/25 12:49:56;;;;;;;2.20;1.48;;;0.10;98.60;;;;;;5024989;28;20559;-84
2021/12/25 12:52:31;;;;;;;4.25;1.58;;;0.30;98.50;;;;;;5024243;28;20233;-84
2021/12/25 12:55:05;;;;;;;4.07;1.77;;;0.00;99.00;;;;;;5023606;28;20216;-84
2021/12/25 12:57:34;;;;;;;2.08;1.15;;;0.10;99.30;;;;;;5023060;28;20291;-83
2021/12/25 13:00:05;;;;;;;2.10;1.40;;;0.00;98.90;;;;;;5025533;28;20213;-83
2021/12/25 13:02:40;;;;;;;4.13;2.55;;;0.10;99.10;;;;;;5023021;28;20280;-83
2021/12/25 13:05:08;;;;;;;2.15;1.23;;;0.20;99.10;;;;;;5017420;28;20233;-86
2021/12/25 13:07:38;;;;;;;3.42;1.80;;;0.20;99.00;;;;;;5015887;28;20368;-84
2021/12/25 13:10:16;;;;;;;1.17;1.00;;;0.20;98.80;;;;;;5018700;28;20276;-84
2021/12/25 13:12:45;;;;;;;3.70;1.42;;;0.30;98.30;;;;;;5014998;28;20204;-84
2021/12/25 13:15:18;;;;;;;2.65;1.45;;;0.30;98.10;;;;;;5023233;28;20240;-84
2021/12/25 13:17:54;;;;;;;3.42;1.65;;;0.30;97.90;;;;;;5029485;28;20196;-86
2021/12/25 13:20:37;;;;;;;5.00;2.53;;;0.40;97.90;;;;;;5023369;28;20215;-84
2021/12/25 13:23:07;;;;;;;4.22;1.50;;;0.40;97.70;;;;;;5019565;28;20205;-82
2021/12/25 13:25:35;;;;;;;4.65;2.05;;;0.50;97.60;;;;;;5019062;28;20289;-83
2021/12/25 13:28:05;;;;;;;3.55;1.63;;;0.40;97.40;;;;;;5017078;28;20650;-84
2021/12/25 13:30:33;;;;;;;5.60;1.52;;;0.40;97.40;;;;;;5020293;28;20709;-83
2021/12/25 13:33:11;;;;;;;5.10;1.98;;;0.40;97.50;;;;;;5021954;28;20309;-85
2021/12/25 13:35:39;;;;;;;3.15;1.95;;;0.60;98.10;;;;;;5021179;28;20283;-85
2021/12/25 13:38:09;;;;;;;7.18;2.22;;;0.40;97.80;;;;;;5022689;28;20208;-84
2021/12/25 13:40:37;;;;;;;6.45;2.05;;;0.40;97.60;;;;;;5023248;28;20210;-80
2021/12/25 13:43:07;;;;;;;3.85;1.75;;;0.50;97.70;;;;;;5033382;28;20275;-84
2021/12/25 13:45:35;;;;;;;3.63;1.70;;;0.50;97.80;;;;;;5024476;28;20253;-84
2021/12/25 13:48:02;;;;;;;3.30;1.95;;;0.60;97.80;;;;;;5026718;28;20206;-82
2021/12/25 13:50:30;;;;;;;3.30;1.83;;;0.60;97.70;;;;;;5026062;28;20580;-84
2021/12/25 13:53:06;;;;;;;1.88;1.35;;;0.50;97.10;;;;;;5034224;28;20201;-85
2021/12/25 13:55:36;;;;;;;3.00;1.65;;;0.50;97.00;;;;;;5031847;28;20287;-86
2021/12/25 13:58:07;;;;;;;4.47;1.60;;;0.40;97.30;;;;;;5027882;28;20264;-86